Time;durP1;ratioP1;P1;durP2;ratioP2;P2;SDS_P1;SDS_P2;PMS_P1;PMS_P2;Temp;Humidity;BMP_temperature;BMP_pressure;BME280_temperature;BME280_humidity;BME280_pressure;Samples;Min_cycle;Max_cycle;Signal;HPM_P1;HPM_P2
2022/07/29 00:00:08;;;;;;;17.40;6.00;;;23.40;48.40;;;;;;5013454;28;20036;-78
2022/07/29 00:02:34;;;;;;;17.52;6.20;;;23.40;48.30;;;;;;5014487;28;20026;-77
2022/07/29 00:05:00;;;;;;;18.02;6.28;;;23.50;48.40;;;;;;5013323;28;20057;-78
2022/07/29 00:07:29;;;;;;;15.50;5.25;;;23.40;48.30;;;;;;5012740;28;20034;-77
2022/07/29 00:09:55;;;;;;;15.70;6.15;;;23.40;48.20;;;;;;4997030;28;20045;-76
2022/07/29 00:12:24;;;;;;;15.25;5.13;;;23.40;48.40;;;;;;5014449;28;20029;-79
2022/07/29 00:14:50;;;;;;;14.15;5.57;;;23.40;48.30;;;;;;5013711;28;20040;-81
2022/07/29 00:17:16;;;;;;;17.65;5.90;;;23.40;48.60;;;;;;5012462;28;20030;-80
2022/07/29 00:19:42;;;;;;;13.80;5.75;;;23.40;48.80;;;;;;5013992;28;20386;-78
2022/07/29 00:22:07;;;;;;;15.27;6.00;;;23.40;48.80;;;;;;5013588;28;20026;-78
2022/07/29 00:24:33;;;;;;;15.52;5.53;;;23.40;48.90;;;;;;5012526;28;20498;-78
2022/07/29 00:26:59;;;;;;;19.00;6.00;;;23.40;48.90;;;;;;4995726;28;20034;-80
2022/07/29 00:29:25;;;;;;;17.02;5.25;;;23.40;49.10;;;;;;5012408;28;20022;-79
2022/07/29 00:31:51;;;;;;;17.65;5.75;;;23.50;49.00;;;;;;5012204;28;20030;-79
2022/07/29 00:37:01;;;;;;;18.98;5.97;;;23.50;49.00;;;;;;5012766;28;20388;-78
2022/07/29 00:39:27;;;;;;;20.83;5.63;;;23.50;49.50;;;;;;5011829;28;20521;-78
2022/07/29 00:41:53;;;;;;;14.82;4.45;;;23.40;49.30;;;;;;5011787;28;20032;-79
2022/07/29 00:44:19;;;;;;;14.45;4.85;;;23.40;49.00;;;;;;5012308;28;20371;-78
2022/07/29 00:46:45;;;;;;;14.65;5.03;;;23.40;49.00;;;;;;5011510;28;20052;-78
2022/07/29 00:49:11;;;;;;;16.17;5.40;;;23.40;49.00;;;;;;5013307;28;20084;-77
2022/07/29 00:51:37;;;;;;;13.23;4.85;;;23.40;49.20;;;;;;5013084;28;20482;-79
2022/07/29 00:54:05;;;;;;;13.00;4.25;;;23.40;49.30;;;;;;5013509;28;20022;-79
2022/07/29 00:56:32;;;;;;;12.80;4.55;;;23.40;49.60;;;;;;4978994;28;20490;-78
2022/07/29 00:58:59;;;;;;;15.20;4.63;;;23.40;49.70;;;;;;5013009;28;20033;-77
2022/07/29 01:01:25;;;;;;;14.50;4.50;;;23.40;49.60;;;;;;4996082;28;20477;-77
2022/07/29 01:03:52;;;;;;;9.52;3.78;;;23.40;49.10;;;;;;5013055;28;20026;-77
2022/07/29 01:06:18;;;;;;;12.45;4.65;;;23.40;49.40;;;;;;5012861;28;20040;-77
2022/07/29 01:08:47;;;;;;;12.57;4.32;;;23.40;49.50;;;;;;5012689;28;20026;-78
2022/07/29 01:11:14;;;;;;;13.75;4.35;;;23.40;49.50;;;;;;5012841;28;20127;-78
2022/07/29 01:13:41;;;;;;;13.52;4.30;;;23.40;49.20;;;;;;5011202;28;20044;-79
2022/07/29 01:16:15;;;;;;;9.77;3.90;;;23.40;49.50;;;;;;5012150;28;20034;-79
2022/07/29 01:18:46;;;;;;;11.63;4.10;;;23.40;49.50;;;;;;5011123;28;20105;-79
2022/07/29 01:21:27;;;;;;;10.52;3.60;;;23.40;49.30;;;;;;5012773;28;20113;-78
2022/07/29 01:24:27;;;;;;;10.48;3.53;;;23.40;49.60;;;;;;5012750;28;20080;-78
2022/07/29 01:27:04;;;;;;;12.50;3.97;;;23.40;49.30;;;;;;5010689;28;20026;-78
2022/07/29 01:29:41;;;;;;;10.40;4.18;;;23.40;49.40;;;;;;5014200;28;20087;-78
2022/07/29 01:32:08;;;;;;;9.95;3.95;;;23.40;49.30;;;;;;5018918;28;20022;-77
2022/07/29 01:34:48;;;;;;;9.50;3.45;;;23.40;49.60;;;;;;5011640;28;20044;-77
2022/07/29 01:37:42;;;;;;;9.25;3.63;;;23.40;49.30;;;;;;5011763;28;20034;-76
2022/07/29 01:40:18;;;;;;;9.27;3.28;;;23.40;49.70;;;;;;5012116;28;20037;-79
2022/07/29 01:42:48;;;;;;;12.02;3.72;;;23.40;49.40;;;;;;5010911;28;20030;-78
2022/07/29 01:45:19;;;;;;;8.05;3.22;;;23.30;49.60;;;;;;5010700;28;20044;-78
2022/07/29 01:48:00;;;;;;;10.48;3.55;;;23.40;49.60;;;;;;5010684;28;20059;-78
2022/07/29 01:50:37;;;;;;;10.00;3.40;;;23.40;49.80;;;;;;5011968;28;20034;-78
2022/07/29 01:53:06;;;;;;;13.35;4.00;;;23.40;49.90;;;;;;4994464;28;20104;-78
2022/07/29 01:55:36;;;;;;;10.03;3.27;;;23.40;49.50;;;;;;5011553;28;20086;-78
2022/07/29 01:58:05;;;;;;;11.82;3.33;;;23.30;49.60;;;;;;5012113;28;20440;-77
2022/07/29 02:00:32;;;;;;;8.70;3.33;;;23.40;49.80;;;;;;5011687;28;20041;-78
2022/07/29 02:03:02;;;;;;;8.23;3.30;;;23.30;49.70;;;;;;5011766;28;20026;-78
2022/07/29 02:05:29;;;;;;;9.80;3.13;;;23.30;49.90;;;;;;5009757;28;20080;-78
2022/07/29 02:07:57;;;;;;;9.88;2.88;;;23.30;49.90;;;;;;5010496;28;20156;-78
2022/07/29 02:10:27;;;;;;;8.80;3.13;;;23.30;49.90;;;;;;5010449;28;20025;-77
2022/07/29 02:12:56;;;;;;;9.32;3.30;;;23.30;49.60;;;;;;4993932;28;20053;-78
2022/07/29 02:15:26;;;;;;;10.13;2.90;;;23.40;49.90;;;;;;5011266;28;20125;-78
2022/07/29 02:17:58;;;;;;;9.10;2.80;;;23.40;49.60;;;;;;5010294;28;20041;-77
2022/07/29 02:20:26;;;;;;;8.18;2.85;;;23.30;49.60;;;;;;5010402;28;20065;-77
2022/07/29 02:22:53;;;;;;;8.43;3.28;;;23.30;49.60;;;;;;5011599;28;20025;-77
2022/07/29 02:25:22;;;;;;;8.77;3.03;;;23.30;49.70;;;;;;5011199;28;20033;-76
2022/07/29 02:27:50;;;;;;;5.65;2.80;;;23.30;49.50;;;;;;5011634;28;20030;-76
2022/07/29 02:30:17;;;;;;;8.70;2.95;;;23.40;49.60;;;;;;5011411;28;20339;-77
2022/07/29 02:32:45;;;;;;;10.20;2.72;;;23.40;50.00;;;;;;5010267;28;20044;-77
2022/07/29 02:35:13;;;;;;;7.43;2.88;;;23.30;49.70;;;;;;5011065;28;20084;-78
2022/07/29 02:37:40;;;;;;;8.98;3.00;;;23.40;49.70;;;;;;5011375;28;20033;-77
2022/07/29 02:40:10;;;;;;;7.28;2.83;;;23.40;50.00;;;;;;5010252;28;20164;-77
2022/07/29 02:42:38;;;;;;;8.27;3.03;;;23.40;49.80;;;;;;5013723;28;20053;-77
2022/07/29 02:45:05;;;;;;;8.45;3.17;;;23.30;49.90;;;;;;5013644;28;20501;-77
2022/07/29 02:47:44;;;;;;;6.55;2.80;;;23.40;49.80;;;;;;5014916;28;20478;-77
2022/07/29 02:50:17;;;;;;;7.10;3.03;;;23.30;49.80;;;;;;5014798;28;20248;-77
2022/07/29 02:53:08;;;;;;;8.15;2.65;;;23.30;50.00;;;;;;5014524;28;20041;-78
2022/07/29 02:55:44;;;;;;;6.65;2.90;;;23.30;50.00;;;;;;5013210;28;20176;-78
2022/07/29 02:58:22;;;;;;;8.85;3.00;;;23.30;49.90;;;;;;5014426;28;20032;-78
2022/07/29 03:00:51;;;;;;;13.13;3.92;;;23.30;50.00;;;;;;5013221;28;20032;-77
2022/07/29 03:03:19;;;;;;;7.70;2.75;;;23.30;49.90;;;;;;5014355;28;20022;-77
2022/07/29 03:05:45;;;;;;;5.43;2.80;;;23.30;49.90;;;;;;5012995;28;20508;-78
2022/07/29 03:08:12;;;;;;;6.75;2.72;;;23.30;50.10;;;;;;5013073;28;20034;-78
2022/07/29 03:10:42;;;;;;;6.53;2.70;;;23.30;50.10;;;;;;5014494;28;20052;-77
2022/07/29 03:13:09;;;;;;;6.25;2.50;;;23.30;50.10;;;;;;5014196;28;20033;-78
2022/07/29 03:15:36;;;;;;;7.15;2.67;;;23.30;49.90;;;;;;5014044;28;20061;-78
2022/07/29 03:18:03;;;;;;;11.23;2.40;;;23.30;50.00;;;;;;5014204;28;20057;-79
2022/07/29 03:20:29;;;;;;;6.85;2.60;;;23.30;50.20;;;;;;5013233;28;20116;-79
2022/07/29 03:22:55;;;;;;;11.85;3.03;;;23.30;50.00;;;;;;5013506;28;20164;-78
2022/07/29 03:25:21;;;;;;;6.55;2.58;;;23.30;50.00;;;;;;5013871;28;20517;-78
2022/07/29 03:27:48;;;;;;;8.55;2.38;;;23.30;50.00;;;;;;5014072;28;20486;-79
2022/07/29 03:30:15;;;;;;;7.35;2.47;;;23.30;49.80;;;;;;5014064;28;20493;-78
2022/07/29 03:32:41;;;;;;;10.98;2.42;;;23.30;50.20;;;;;;5014135;28;20037;-78
2022/07/29 03:35:08;;;;;;;9.38;2.80;;;23.30;50.20;;;;;;5012592;28;20064;-78
2022/07/29 03:37:36;;;;;;;6.38;2.80;;;23.30;50.20;;;;;;5012725;28;20451;-78
2022/07/29 03:40:04;;;;;;;8.35;2.70;;;23.30;49.90;;;;;;5013733;28;20041;-79
2022/07/29 03:42:33;;;;;;;9.48;2.67;;;23.30;50.00;;;;;;5012585;28;20025;-78
2022/07/29 03:45:03;;;;;;;4.90;2.40;;;23.30;49.90;;;;;;5013647;28;20022;-78
2022/07/29 03:47:32;;;;;;;6.28;2.50;;;23.30;50.00;;;;;;5013891;28;20041;-79
2022/07/29 03:50:06;;;;;;;7.00;3.30;;;23.30;49.90;;;;;;5013538;28;20030;-79
2022/07/29 03:52:34;;;;;;;8.57;2.58;;;23.30;50.00;;;;;;4995928;28;20486;-79
2022/07/29 03:54:59;;;;;;;6.82;2.75;;;23.30;50.00;;;;;;5013753;28;20037;-80
2022/07/29 03:57:28;;;;;;;6.72;2.80;;;23.30;50.00;;;;;;5018457;28;20025;-79
2022/07/29 03:59:54;;;;;;;6.57;2.72;;;23.30;50.00;;;;;;5003844;28;20486;-79
2022/07/29 04:02:25;;;;;;;4.75;2.20;;;23.30;50.00;;;;;;5014046;28;20389;-79
2022/07/29 04:04:52;;;;;;;7.10;2.92;;;23.30;50.00;;;;;;5013390;28;20045;-79
2022/07/29 04:07:18;;;;;;;7.68;2.78;;;23.30;50.00;;;;;;5012063;28;20522;-79
2022/07/29 04:09:43;;;;;;;7.50;2.58;;;23.30;49.90;;;;;;5013346;28;20103;-79
2022/07/29 04:12:09;;;;;;;5.68;2.50;;;23.30;50.10;;;;;;5013657;28;20030;-79
2022/07/29 04:14:36;;;;;;;5.03;2.33;;;23.30;50.20;;;;;;4996382;28;20408;-79
2022/07/29 04:17:03;;;;;;;6.45;2.72;;;23.30;50.10;;;;;;5013488;28;20490;-79
2022/07/29 04:19:29;;;;;;;6.75;3.08;;;23.30;50.10;;;;;;5013281;28;20022;-79
2022/07/29 04:21:55;;;;;;;7.55;2.95;;;23.30;50.30;;;;;;5012211;28;20032;-79
2022/07/29 04:24:21;;;;;;;6.25;2.70;;;23.30;50.20;;;;;;5012435;28;20112;-79
2022/07/29 04:26:48;;;;;;;6.07;2.80;;;23.30;50.20;;;;;;4995640;28;20068;-79
2022/07/29 04:29:16;;;;;;;5.60;3.03;;;23.30;50.10;;;;;;5012047;28;20036;-79
2022/07/29 04:31:43;;;;;;;7.20;2.90;;;23.30;50.20;;;;;;5013282;28;20081;-79
2022/07/29 04:34:09;;;;;;;6.25;2.67;;;23.30;50.10;;;;;;5012281;28;20030;-79
2022/07/29 04:36:35;;;;;;;10.50;2.97;;;23.20;50.00;;;;;;5011484;28;20105;-80
2022/07/29 04:39:02;;;;;;;6.85;2.60;;;23.30;50.20;;;;;;5012930;28;20459;-80
2022/07/29 04:41:28;;;;;;;5.30;2.70;;;23.20;50.30;;;;;;4995228;28;20057;-80
2022/07/29 04:43:57;;;;;;;7.28;3.00;;;23.30;49.90;;;;;;5012965;28;20105;-80
2022/07/29 04:46:23;;;;;;;5.50;2.72;;;23.20;50.60;;;;;;5011214;28;20113;-78
2022/07/29 04:48:49;;;;;;;6.93;3.08;;;23.30;50.30;;;;;;5012669;28;20053;-79
2022/07/29 04:51:15;;;;;;;7.25;3.00;;;23.20;50.00;;;;;;5011455;28;20033;-79
2022/07/29 04:53:41;;;;;;;7.28;2.95;;;23.30;50.30;;;;;;5012761;28;20479;-79
2022/07/29 04:56:07;;;;;;;6.88;2.75;;;23.30;50.30;;;;;;5012209;28;20026;-80
2022/07/29 04:58:37;;;;;;;8.45;2.95;;;23.20;50.10;;;;;;5012604;28;20541;-80
2022/07/29 05:01:03;;;;;;;6.03;2.95;;;23.20;50.40;;;;;;5038181;23;20102;-73
2022/07/29 05:03:29;;;;;;;7.35;2.97;;;23.20;50.20;;;;;;5031142;28;20022;-74
2022/07/29 05:05:55;;;;;;;6.18;2.75;;;23.20;49.90;;;;;;5031670;28;20432;-74
2022/07/29 05:08:21;;;;;;;7.78;2.95;;;23.20;50.20;;;;;;5032076;28;20171;-74
2022/07/29 05:10:47;;;;;;;7.25;3.00;;;23.20;50.10;;;;;;5018480;28;20030;-74
2022/07/29 05:13:13;;;;;;;6.60;2.80;;;23.20;50.00;;;;;;5012303;28;20116;-75
2022/07/29 05:15:39;;;;;;;9.85;3.10;;;23.20;50.00;;;;;;5011825;28;20026;-75
2022/07/29 05:18:05;;;;;;;7.88;3.22;;;23.20;49.80;;;;;;5012196;28;20022;-75
2022/07/29 05:20:31;;;;;;;4.15;2.50;;;23.30;50.00;;;;;;4994720;28;20034;-75
2022/07/29 05:22:58;;;;;;;7.03;3.00;;;23.30;50.00;;;;;;4994855;28;20037;-76
2022/07/29 05:25:25;;;;;;;7.57;3.00;;;23.30;49.80;;;;;;5011755;28;20030;-76
2022/07/29 05:27:52;;;;;;;11.65;3.00;;;23.30;50.10;;;;;;5012176;28;20030;-75
2022/07/29 05:30:18;;;;;;;7.32;2.95;;;23.30;50.00;;;;;;5010704;28;20030;-75
2022/07/29 05:32:44;;;;;;;9.32;2.80;;;23.30;49.80;;;;;;5012003;28;20065;-75
2022/07/29 05:35:10;;;;;;;9.75;3.30;;;23.30;49.90;;;;;;5011643;28;20429;-74
2022/07/29 05:37:36;;;;;;;6.93;2.72;;;23.30;49.80;;;;;;5012065;28;20450;-75
2022/07/29 05:40:03;;;;;;;8.45;2.80;;;23.30;50.10;;;;;;5012153;28;20061;-75
2022/07/29 05:42:29;;;;;;;7.50;2.50;;;23.30;50.10;;;;;;5011901;28;20105;-75
2022/07/29 05:44:54;;;;;;;7.90;2.67;;;23.30;50.20;;;;;;5011909;28;20459;-75
2022/07/29 05:47:21;;;;;;;6.97;2.92;;;23.30;49.80;;;;;;5011495;28;20030;-75
2022/07/29 05:49:47;;;;;;;6.13;3.13;;;23.20;50.10;;;;;;5010704;28;20438;-76
2022/07/29 05:52:13;;;;;;;9.60;3.40;;;23.20;50.00;;;;;;5010614;28;20084;-75
2022/07/29 05:54:39;;;;;;;7.25;2.88;;;23.20;50.00;;;;;;5011890;28;20026;-76
2022/07/29 05:57:05;;;;;;;9.13;3.63;;;23.20;49.90;;;;;;5011481;28;20038;-76
2022/07/29 05:59:35;;;;;;;10.70;3.58;;;23.20;49.70;;;;;;5011648;28;20114;-76
2022/07/29 06:02:01;;;;;;;7.78;3.58;;;23.20;50.00;;;;;;5010541;28;20034;-76
2022/07/29 06:04:27;;;;;;;8.88;4.35;;;23.20;49.80;;;;;;5011743;28;20422;-75
2022/07/29 06:06:53;;;;;;;6.70;3.45;;;23.20;50.00;;;;;;5011779;28;20052;-75
2022/07/29 06:09:18;;;;;;;6.25;2.90;;;23.20;50.00;;;;;;5011708;28;20057;-75
2022/07/29 06:11:44;;;;;;;6.28;2.95;;;23.20;49.90;;;;;;4994418;28;20120;-75
2022/07/29 06:14:10;;;;;;;7.40;3.50;;;23.20;50.00;;;;;;5011638;28;20037;-75
2022/07/29 06:16:36;;;;;;;10.90;3.35;;;23.20;50.00;;;;;;5015171;28;20034;-76
2022/07/29 06:19:02;;;;;;;10.52;3.30;;;23.20;49.80;;;;;;5015380;28;20165;-76
2022/07/29 06:21:28;;;;;;;6.32;3.13;;;23.20;49.90;;;;;;5015135;28;20022;-76
2022/07/29 06:23:54;;;;;;;8.05;3.42;;;23.20;49.70;;;;;;5015304;28;20036;-76
2022/07/29 06:26:20;;;;;;;7.80;2.90;;;23.20;50.00;;;;;;5013637;28;20113;-76
2022/07/29 06:28:46;;;;;;;7.82;2.85;;;23.30;49.90;;;;;;5015132;28;20165;-76
2022/07/29 06:31:12;;;;;;;6.05;2.78;;;23.20;49.80;;;;;;5013817;28;20030;-76
2022/07/29 06:33:37;;;;;;;7.93;3.53;;;23.20;49.80;;;;;;5015044;28;20109;-76
2022/07/29 06:36:05;;;;;;;6.72;3.20;;;23.20;49.90;;;;;;5013608;28;20505;-76
2022/07/29 06:38:32;;;;;;;12.07;3.38;;;23.20;50.00;;;;;;5013891;28;20025;-76
2022/07/29 06:41:09;;;;;;;7.57;2.95;;;23.20;50.00;;;;;;5014791;28;20022;-76
2022/07/29 06:43:37;;;;;;;5.93;2.80;;;23.20;50.10;;;;;;5014845;28;20165;-76
2022/07/29 06:46:05;;;;;;;8.15;3.08;;;23.20;50.00;;;;;;5014476;28;20026;-76
2022/07/29 06:48:32;;;;;;;7.22;3.20;;;23.20;50.00;;;;;;5014817;28;20025;-76
2022/07/29 06:50:58;;;;;;;6.07;2.92;;;23.20;50.10;;;;;;5014672;28;20096;-76
2022/07/29 06:53:24;;;;;;;7.63;3.03;;;23.30;50.10;;;;;;5014776;28;20288;-75
2022/07/29 06:55:50;;;;;;;10.85;3.25;;;23.20;49.90;;;;;;5014224;28;20037;-76
2022/07/29 06:58:17;;;;;;;8.07;3.00;;;23.30;50.10;;;;;;5014654;28;20038;-76
2022/07/29 07:01:00;;;;;;;11.77;3.38;;;23.30;50.10;;;;;;5014444;28;20542;-76
2022/07/29 07:03:26;;;;;;;9.88;3.30;;;23.20;50.10;;;;;;5014582;28;20501;-76
2022/07/29 07:05:53;;;;;;;8.15;3.97;;;23.30;50.00;;;;;;4996731;28;20029;-76
2022/07/29 07:08:20;;;;;;;9.60;4.03;;;23.30;50.10;;;;;;5013220;28;20049;-76
2022/07/29 07:10:46;;;;;;;10.10;3.47;;;23.30;50.20;;;;;;5014575;28;20030;-76
2022/07/29 07:13:12;;;;;;;9.25;3.83;;;23.30;50.20;;;;;;5013070;28;20040;-76
2022/07/29 07:15:38;;;;;;;11.15;3.72;;;23.30;50.20;;;;;;5013928;28;20034;-76
2022/07/29 07:18:08;;;;;;;10.45;3.67;;;23.30;50.30;;;;;;5014344;28;20026;-76
2022/07/29 07:20:35;;;;;;;12.40;4.07;;;23.30;50.30;;;;;;5014197;28;20026;-76
2022/07/29 07:23:01;;;;;;;9.93;4.10;;;23.30;50.30;;;;;;5012783;28;20533;-76
2022/07/29 07:25:27;;;;;;;7.47;2.90;;;23.30;50.30;;;;;;5013787;28;20030;-76
2022/07/29 07:27:53;;;;;;;6.93;3.65;;;23.30;50.30;;;;;;5013389;28;20393;-76
2022/07/29 07:30:18;;;;;;;9.23;3.95;;;23.30;50.30;;;;;;4996489;28;20041;-76
2022/07/29 07:32:44;;;;;;;13.60;3.92;;;23.30;50.30;;;;;;5013969;28;20030;-76
2022/07/29 07:35:11;;;;;;;10.80;3.80;;;23.30;50.40;;;;;;5012340;28;20045;-76
2022/07/29 07:37:37;;;;;;;9.23;3.47;;;23.30;51.00;;;;;;5013723;28;20109;-76
2022/07/29 07:40:04;;;;;;;10.75;3.65;;;23.30;50.40;;;;;;5014011;28;20049;-76
2022/07/29 07:42:30;;;;;;;7.50;3.50;;;23.30;50.50;;;;;;5012650;28;20121;-76
2022/07/29 07:44:56;;;;;;;7.90;3.30;;;23.30;50.50;;;;;;5012737;28;20125;-76
2022/07/29 07:47:23;;;;;;;8.52;3.50;;;23.30;50.50;;;;;;5013411;28;20034;-76
2022/07/29 07:49:50;;;;;;;7.40;3.72;;;23.30;50.60;;;;;;5013597;28;20018;-76
2022/07/29 07:52:17;;;;;;;10.52;3.70;;;23.30;50.90;;;;;;5012598;28;20497;-76
2022/07/29 07:54:44;;;;;;;10.15;3.95;;;23.30;51.20;;;;;;5008663;28;20034;-73
2022/07/29 07:57:11;;;;;;;9.25;3.80;;;23.40;51.20;;;;;;5012940;28;20034;-75
2022/07/29 07:59:37;;;;;;;8.77;3.90;;;23.50;51.40;;;;;;5013286;28;20061;-74
2022/07/29 08:02:03;;;;;;;11.35;3.67;;;23.40;51.00;;;;;;5013507;28;20030;-73
2022/07/29 08:04:29;;;;;;;7.57;3.25;;;23.50;51.10;;;;;;5012785;28;20025;-73
2022/07/29 08:06:56;;;;;;;9.10;3.50;;;23.50;50.90;;;;;;5012887;28;20469;-74
2022/07/29 08:09:24;;;;;;;7.57;3.25;;;23.50;50.80;;;;;;5013077;28;20034;-75
2022/07/29 08:11:50;;;;;;;8.35;3.42;;;23.60;51.10;;;;;;5013191;28;20036;-74
2022/07/29 08:14:16;;;;;;;7.65;3.22;;;23.60;51.20;;;;;;5012360;28;20121;-76
2022/07/29 08:16:42;;;;;;;14.20;4.10;;;23.60;51.20;;;;;;4994766;28;20562;-76
2022/07/29 08:19:09;;;;;;;7.63;3.55;;;23.70;52.20;;;;;;5011957;28;20036;-76
2022/07/29 08:21:35;;;;;;;9.63;3.00;;;23.60;51.70;;;;;;5013049;28;20026;-76
2022/07/29 08:26:45;;;;;;;12.85;3.45;;;23.60;52.30;;;;;;5012711;28;20032;-74
2022/07/29 08:29:11;;;;;;;7.72;3.10;;;23.60;51.70;;;;;;5012808;28;20109;-76
2022/07/29 08:31:38;;;;;;;9.10;2.78;;;23.60;51.30;;;;;;4979140;28;20504;-73
2022/07/29 08:34:04;;;;;;;6.40;2.95;;;23.60;51.70;;;;;;5012739;28;20084;-73
2022/07/29 08:36:31;;;;;;;14.02;6.93;;;23.60;51.40;;;;;;5011198;28;20457;-74
2022/07/29 08:38:57;;;;;;;22.33;11.75;;;23.60;50.80;;;;;;5010822;28;20060;-73
2022/07/29 08:41:23;;;;;;;16.33;9.02;;;23.60;51.30;;;;;;5012785;28;20474;-72
2022/07/29 08:43:50;;;;;;;18.05;9.88;;;23.60;51.50;;;;;;5008841;28;20482;-73
2022/07/29 08:46:17;;;;;;;16.88;9.02;;;23.60;50.70;;;;;;5009267;28;20029;-72
2022/07/29 08:48:43;;;;;;;17.58;9.70;;;23.60;50.20;;;;;;5012362;28;20052;-72
2022/07/29 08:51:14;;;;;;;20.60;8.25;;;23.60;49.60;;;;;;5010459;28;20026;-72
2022/07/29 08:53:42;;;;;;;13.10;6.22;;;23.60;49.20;;;;;;5011708;28;20029;-71
2022/07/29 08:56:12;;;;;;;12.30;6.15;;;23.60;49.80;;;;;;4994194;28;20144;-73
2022/07/29 08:58:39;;;;;;;13.48;6.13;;;23.60;49.90;;;;;;5012479;28;20125;-71
2022/07/29 09:01:06;;;;;;;13.68;5.68;;;23.60;50.60;;;;;;5010868;28;20388;-74
2022/07/29 09:03:35;;;;;;;20.30;5.97;;;23.60;50.50;;;;;;5012515;28;20026;-75
2022/07/29 09:06:03;;;;;;;19.00;6.30;;;23.60;50.50;;;;;;5011163;28;20113;-77
2022/07/29 09:08:31;;;;;;;15.05;5.82;;;23.60;50.60;;;;;;5012320;28;20030;-78
2022/07/29 09:10:58;;;;;;;17.25;6.05;;;23.60;51.00;;;;;;5010820;28;20501;-78
2022/07/29 09:13:24;;;;;;;14.45;5.50;;;23.50;51.10;;;;;;5012154;28;20033;-78
2022/07/29 09:15:50;;;;;;;14.15;5.63;;;23.60;51.30;;;;;;5011702;28;20065;-74
2022/07/29 09:18:40;;;;;;;17.30;5.75;;;23.60;50.90;;;;;;5012077;28;20040;-74
2022/07/29 09:24:12;;;;;;;12.02;5.10;;;23.60;50.70;;;;;;5010663;28;20341;-74
2022/07/29 09:26:44;;;;;;;11.70;4.85;;;23.60;50.60;;;;;;5011196;28;20025;-74
2022/07/29 09:29:12;;;;;;;11.98;4.88;;;23.60;50.70;;;;;;5010996;28;20040;-74
2022/07/29 09:31:43;;;;;;;11.73;5.18;;;23.60;50.80;;;;;;5011776;28;20034;-73
2022/07/29 09:34:10;;;;;;;11.05;4.65;;;23.60;50.40;;;;;;5010570;28;20100;-72
2022/07/29 09:36:46;;;;;;;12.60;4.80;;;23.60;50.50;;;;;;5011413;28;20026;-72
2022/07/29 09:39:14;;;;;;;16.95;4.75;;;23.60;51.00;;;;;;5010640;28;20030;-72
2022/07/29 09:41:54;;;;;;;16.77;4.75;;;23.60;51.60;;;;;;5011845;28;20037;-72
2022/07/29 09:44:21;;;;;;;12.90;4.82;;;23.60;51.50;;;;;;5010678;28;20033;-73
2022/07/29 09:46:53;;;;;;;10.75;4.93;;;23.60;51.50;;;;;;5011162;28;20048;-72
2022/07/29 09:49:19;;;;;;;15.32;5.15;;;23.60;51.60;;;;;;5011755;28;20084;-72
2022/07/29 09:51:45;;;;;;;11.95;4.78;;;23.60;51.90;;;;;;5014620;28;20057;-73
2022/07/29 09:54:27;;;;;;;15.05;4.88;;;23.60;51.70;;;;;;5015716;28;20065;-73
2022/07/29 09:56:55;;;;;;;12.43;4.68;;;23.60;51.80;;;;;;5015348;28;20037;-73
2022/07/29 09:59:26;;;;;;;12.27;4.97;;;23.60;51.80;;;;;;5015103;28;20502;-73
2022/07/29 10:01:52;;;;;;;11.35;4.90;;;23.60;52.30;;;;;;5015726;28;20060;-72
2022/07/29 10:04:18;;;;;;;12.65;5.07;;;23.60;51.60;;;;;;5015706;28;20105;-73
2022/07/29 10:07:04;;;;;;;7.90;4.32;;;23.60;51.80;;;;;;5015240;28;20069;-73
2022/07/29 10:09:31;;;;;;;11.77;5.15;;;23.60;51.60;;;;;;5014554;28;20030;-72
2022/07/29 10:12:03;;;;;;;12.38;4.80;;;23.60;51.50;;;;;;5015407;28;20033;-72
2022/07/29 10:14:30;;;;;;;10.73;4.53;;;23.60;51.10;;;;;;4998063;28;20033;-72
2022/07/29 10:16:56;;;;;;;14.73;4.80;;;23.60;51.60;;;;;;4997469;28;20084;-73
2022/07/29 10:19:23;;;;;;;12.45;4.72;;;23.60;51.60;;;;;;5014128;28;20076;-72
2022/07/29 10:21:49;;;;;;;9.40;3.92;;;23.60;51.60;;;;;;5015310;28;20442;-73
2022/07/29 10:24:15;;;;;;;11.60;4.47;;;23.50;51.60;;;;;;5014131;28;20026;-73
2022/07/29 10:26:41;;;;;;;11.50;4.20;;;23.50;51.60;;;;;;5013848;28;20521;-72
2022/07/29 10:29:07;;;;;;;11.48;4.65;;;23.50;51.60;;;;;;5013998;28;20508;-73
2022/07/29 10:32:15;;;;;;;13.38;4.47;;;23.50;51.60;;;;;;5013917;28;20030;-73
2022/07/29 10:35:19;;;;;;;10.23;3.90;;;23.50;51.60;;;;;;5013788;28;20049;-73
2022/07/29 10:38:22;;;;;;;8.65;4.32;;;23.50;51.70;;;;;;5014956;28;20117;-73
2022/07/29 10:41:26;;;;;;;11.75;3.95;;;23.50;51.70;;;;;;5014894;28;20033;-73
2022/07/29 10:44:13;;;;;;;8.60;4.20;;;23.50;51.80;;;;;;5014898;28;20418;-73
2022/07/29 10:46:40;;;;;;;9.20;3.88;;;23.50;51.70;;;;;;5014544;28;20030;-73
2022/07/29 10:49:15;;;;;;;12.98;4.78;;;23.50;51.80;;;;;;5014805;28;20021;-72
2022/07/29 10:52:01;;;;;;;9.70;4.10;;;23.50;51.80;;;;;;5014574;28;20442;-73
2022/07/29 10:54:36;;;;;;;11.60;4.22;;;23.50;51.90;;;;;;5014772;28;20527;-73
2022/07/29 10:57:28;;;;;;;9.98;4.30;;;23.60;51.90;;;;;;5014385;28;20025;-73
2022/07/29 11:00:13;;;;;;;9.18;3.90;;;23.50;51.90;;;;;;5029061;23;20038;-73
2022/07/29 11:02:51;;;;;;;11.65;4.03;;;23.50;51.80;;;;;;5045256;28;20073;-72
2022/07/29 11:05:20;;;;;;;15.90;4.55;;;23.50;52.10;;;;;;5043082;28;20021;-73
2022/07/29 11:08:23;;;;;;;12.32;4.03;;;23.60;52.50;;;;;;5017918;28;20033;-72
2022/07/29 11:11:14;;;;;;;11.57;4.30;;;23.60;52.80;;;;;;5040700;28;20091;-72
2022/07/29 11:13:50;;;;;;;9.57;4.18;;;23.60;54.20;;;;;;5030087;28;20084;-73
2022/07/29 11:16:17;;;;;;;14.95;4.65;;;23.60;52.70;;;;;;5013773;28;20029;-73
2022/07/29 11:19:18;;;;;;;13.88;4.22;;;23.60;54.20;;;;;;5032072;28;20030;-73
2022/07/29 11:21:49;;;;;;;11.13;4.32;;;23.60;55.30;;;;;;5030418;28;20026;-73
2022/07/29 11:24:18;;;;;;;12.10;4.75;;;23.70;55.10;;;;;;5031979;28;20091;-73
2022/07/29 11:26:45;;;;;;;9.73;4.35;;;23.70;55.20;;;;;;5031261;28;20041;-73
2022/07/29 11:29:17;;;;;;;9.35;3.97;;;23.70;55.30;;;;;;5031904;28;20032;-73
2022/07/29 11:31:45;;;;;;;10.55;3.97;;;23.70;55.20;;;;;;5031877;28;20032;-76
2022/07/29 11:34:20;;;;;;;10.10;4.22;;;23.70;55.50;;;;;;5027653;28;20041;-74
2022/07/29 11:37:13;;;;;;;10.63;4.22;;;23.80;56.50;;;;;;5030010;28;20037;-75
2022/07/29 11:40:04;;;;;;;11.50;3.38;;;23.80;53.00;;;;;;5030551;28;20025;-75
2022/07/29 11:42:35;;;;;;;11.80;3.70;;;23.90;49.80;;;;;;5010412;28;20080;-75
2022/07/29 11:45:08;;;;;;;11.90;3.72;;;23.90;50.60;;;;;;5031738;28;20504;-75
2022/07/29 11:47:44;;;;;;;10.02;3.92;;;23.90;50.70;;;;;;5031614;28;20026;-75
2022/07/29 11:50:13;;;;;;;11.38;4.53;;;23.90;49.70;;;;;;5031730;28;20030;-75
2022/07/29 11:52:47;;;;;;;18.67;9.48;;;23.90;46.80;;;;;;5030369;28;20387;-77
2022/07/29 11:55:19;;;;;;;21.08;11.68;;;23.90;48.70;;;;;;5029920;28;20097;-76
2022/07/29 11:57:56;;;;;;;24.20;9.98;;;23.90;48.40;;;;;;5030332;28;20116;-76
2022/07/29 12:00:27;;;;;;;23.95;7.38;;;24.00;48.40;;;;;;5030240;28;20540;-76
2022/07/29 12:02:53;;;;;;;16.35;7.43;;;24.00;49.20;;;;;;5013999;28;20037;-75
2022/07/29 12:05:20;;;;;;;13.75;6.10;;;24.00;49.30;;;;;;5029623;28;20061;-77
2022/07/29 12:07:47;;;;;;;13.73;6.18;;;24.00;48.80;;;;;;5030245;28;20147;-76
2022/07/29 12:10:14;;;;;;;11.77;4.95;;;24.00;49.20;;;;;;5030161;28;20048;-76
2022/07/29 12:12:40;;;;;;;11.05;4.47;;;24.00;48.20;;;;;;5029592;28;20124;-75
2022/07/29 12:15:20;;;;;;;17.63;4.60;;;24.00;47.60;;;;;;5029595;28;20113;-75
2022/07/29 12:17:48;;;;;;;12.75;5.00;;;24.00;48.70;;;;;;5031004;28;20175;-75
2022/07/29 12:20:29;;;;;;;36.10;17.75;;;24.00;48.30;;;;;;5031322;28;20021;-75
2022/07/29 12:22:55;;;;;;;35.38;20.38;;;24.00;47.80;;;;;;5030941;28;20112;-75
2022/07/29 12:25:23;;;;;;;28.95;15.90;;;24.00;49.00;;;;;;5029579;28;20052;-76
2022/07/29 12:28:03;;;;;;;25.58;12.88;;;24.00;47.60;;;;;;5031021;28;20514;-74
2022/07/29 12:30:41;;;;;;;23.10;12.68;;;24.10;48.50;;;;;;5013428;28;20085;-75
2022/07/29 12:33:20;;;;;;;25.42;14.57;;;24.10;49.00;;;;;;5030818;28;20028;-75
2022/07/29 12:35:51;;;;;;;24.58;12.15;;;24.20;50.10;;;;;;5012906;28;20041;-75
2022/07/29 12:38:18;;;;;;;18.75;10.43;;;24.20;49.40;;;;;;5030742;28;20053;-75
2022/07/29 12:40:46;;;;;;;23.63;9.80;;;24.20;50.40;;;;;;5029450;28;20127;-76
2022/07/29 12:43:17;;;;;;;18.80;9.90;;;24.30;50.50;;;;;;5030797;28;20127;-75
2022/07/29 12:45:46;;;;;;;20.75;10.63;;;24.20;49.90;;;;;;5029337;28;20057;-75
2022/07/29 12:48:13;;;;;;;20.07;12.27;;;24.20;48.90;;;;;;5030618;28;20033;-77
2022/07/29 12:51:14;;;;;;;23.42;14.85;;;24.20;48.20;;;;;;5029713;28;20279;-77
2022/07/29 12:53:39;;;;;;;22.45;12.73;;;24.20;48.20;;;;;;4997674;28;20123;-77
2022/07/29 12:56:14;;;;;;;17.08;10.32;;;24.20;48.30;;;;;;5030372;28;20112;-76
2022/07/29 12:58:44;;;;;;;16.67;7.55;;;24.20;47.90;;;;;;5029208;28;20033;-76
2022/07/29 13:01:17;;;;;;;16.77;7.75;;;24.20;47.90;;;;;;5029123;28;20051;-76